createdAt,value
2023-03-31T00:01:00.161Z,6.00
2023-03-31T00:03:28.859Z,6.40
2023-03-31T00:06:00.539Z,7.00
2023-03-31T00:08:30.749Z,6.90
2023-03-31T00:11:01.563Z,5.50
2023-03-31T00:13:30.261Z,6.50
2023-03-31T00:16:06.010Z,5.80
2023-03-31T00:18:37.077Z,4.60
2023-03-31T00:23:43.241Z,5.00
2023-03-31T00:26:14.184Z,5.30
2023-03-31T00:28:44.715Z,6.30
2023-03-31T00:31:15.189Z,7.80
2023-03-31T00:33:45.776Z,7.90
2023-03-31T00:36:21.179Z,5.90
2023-03-31T00:38:56.499Z,5.40
2023-03-31T00:41:25.611Z,5.90
2023-03-31T00:44:27.346Z,6.00
2023-03-31T00:47:02.989Z,6.50
2023-03-31T00:49:40.922Z,7.30
2023-03-31T00:52:18.294Z,7.20
2023-03-31T00:54:50.253Z,7.30
2023-03-31T00:57:27.027Z,7.70
2023-03-31T00:59:58.744Z,10.30
2023-03-31T01:02:27.331Z,9.60
2023-03-31T01:05:01.593Z,8.60
2023-03-31T01:07:44.142Z,8.60
2023-03-31T01:10:11.814Z,9.10
2023-03-31T01:12:42.629Z,9.00
2023-03-31T01:15:10.310Z,9.30
2023-03-31T01:17:40.876Z,8.60
2023-03-31T01:20:32.871Z,8.20
2023-03-31T01:23:12.221Z,8.70
2023-03-31T01:26:17.914Z,9.70
2023-03-31T01:29:17.097Z,10.00
2023-03-31T01:32:10.671Z,10.60
2023-03-31T01:35:09.961Z,11.70
2023-03-31T01:38:08.458Z,10.10
2023-03-31T01:41:24.923Z,10.40
2023-03-31T01:44:18.619Z,9.30
2023-03-31T01:47:28.759Z,9.70
2023-03-31T01:53:25.048Z,10.40
2023-03-31T01:56:26.793Z,9.20
2023-03-31T01:59:11.588Z,10.40
2023-03-31T02:01:45.635Z,10.10
2023-03-31T02:04:19.477Z,8.90
2023-03-31T02:06:55.762Z,9.90
2023-03-31T02:09:27.786Z,9.90
2023-03-31T02:11:55.843Z,8.80
2023-03-31T02:14:26.744Z,8.50
2023-03-31T02:17:18.613Z,9.30
2023-03-31T02:19:48.941Z,8.20
2023-03-31T02:22:16.901Z,7.60
2023-03-31T02:24:46.251Z,7.40
2023-03-31T02:27:28.151Z,7.40
2023-03-31T02:30:05.112Z,6.40
2023-03-31T02:32:41.798Z,7.00
2023-03-31T02:35:12.735Z,54.90
2023-03-31T02:37:44.511Z,25.40
2023-03-31T02:40:21.675Z,14.40
2023-03-31T02:42:51.603Z,9.90
2023-03-31T02:45:53.813Z,8.80
2023-03-31T02:48:28.898Z,9.60
2023-03-31T02:51:10.260Z,8.30
2023-03-31T02:53:53.289Z,10.70
2023-03-31T02:56:36.362Z,10.10
2023-03-31T02:59:32.283Z,11.20
2023-03-31T03:02:17.678Z,24.40
2023-03-31T03:04:52.417Z,41.40
2023-03-31T03:07:24.445Z,40.00
2023-03-31T03:10:10.764Z,48.40
2023-03-31T03:12:45.115Z,47.00
2023-03-31T03:15:18.679Z,47.60
2023-03-31T03:17:48.348Z,44.60
2023-03-31T03:20:17.049Z,41.00
2023-03-31T03:22:47.578Z,42.40
2023-03-31T03:25:19.808Z,39.70
2023-03-31T03:27:55.307Z,36.80
2023-03-31T03:30:24.481Z,32.60
2023-03-31T03:32:58.531Z,30.00
2023-03-31T03:35:27.505Z,32.90
2023-03-31T03:37:58.928Z,36.80
2023-03-31T03:40:34.198Z,41.60
2023-03-31T03:43:09.290Z,36.30
2023-03-31T03:45:37.654Z,30.30
2023-03-31T03:48:10.784Z,24.80
2023-03-31T03:50:42.073Z,19.70
2023-03-31T03:53:13.365Z,17.40
2023-03-31T03:55:50.665Z,15.30
2023-03-31T03:58:21.521Z,15.00
2023-03-31T04:00:54.453Z,13.30
2023-03-31T04:03:29.053Z,14.60
2023-03-31T04:06:04.762Z,14.30
2023-03-31T04:08:39.141Z,12.70
2023-03-31T04:11:20.092Z,13.00
2023-03-31T04:13:53.840Z,11.80
2023-03-31T04:16:39.515Z,11.80
2023-03-31T04:19:11.570Z,12.60
2023-03-31T04:24:59.069Z,11.90
2023-03-31T04:27:46.241Z,10.60
2023-03-31T04:30:23.455Z,10.80
2023-03-31T04:33:00.715Z,11.70
2023-03-31T04:35:55.788Z,10.50
2023-03-31T04:38:33.011Z,10.60
2023-03-31T04:41:09.206Z,11.30
2023-03-31T04:43:44.848Z,11.30
2023-03-31T04:46:20.577Z,9.90
2023-03-31T04:48:52.925Z,10.60
2023-03-31T04:51:25.155Z,10.20
2023-03-31T04:56:30.052Z,11.30
2023-03-31T04:59:04.779Z,11.10
2023-03-31T05:01:45.892Z,9.40
2023-03-31T05:04:25.374Z,8.70
2023-03-31T05:06:57.439Z,8.20
2023-03-31T05:09:25.328Z,8.30
2023-03-31T05:11:58.918Z,9.10
2023-03-31T05:14:27.525Z,8.50
2023-03-31T05:16:58.554Z,8.80
2023-03-31T05:19:32.255Z,8.60
2023-03-31T05:22:05.615Z,8.30
2023-03-31T05:24:36.804Z,9.30
2023-03-31T05:28:01.684Z,9.30
2023-03-31T05:30:39.860Z,8.90
2023-03-31T05:33:36.953Z,9.20
2023-03-31T05:36:10.656Z,9.10
2023-03-31T05:38:48.472Z,8.50
2023-03-31T05:41:20.002Z,11.10
2023-03-31T05:43:53.489Z,10.80
2023-03-31T05:46:44.638Z,10.00
2023-03-31T05:49:16.440Z,9.50
2023-03-31T05:51:48.417Z,8.40
2023-03-31T05:57:14.720Z,8.50
2023-03-31T05:59:43.074Z,8.40
2023-03-31T06:02:17.717Z,7.80
2023-03-31T06:04:50.273Z,7.20
2023-03-31T06:07:20.184Z,8.10
2023-03-31T06:10:03.476Z,8.60
2023-03-31T06:12:33.782Z,8.80
2023-03-31T06:15:22.962Z,7.30
2023-03-31T06:17:54.978Z,8.40
2023-03-31T06:20:30.913Z,7.80
2023-03-31T06:23:34.234Z,9.00
2023-03-31T06:26:07.081Z,10.00
2023-03-31T06:28:36.228Z,10.20
2023-03-31T06:31:21.827Z,11.20
2023-03-31T06:33:50.327Z,11.30
2023-03-31T06:36:41.355Z,10.80
2023-03-31T06:39:10.472Z,8.70
2023-03-31T06:41:39.503Z,8.30
2023-03-31T06:44:09.718Z,8.60
2023-03-31T06:46:38.133Z,7.50
2023-03-31T06:49:10.197Z,8.40
2023-03-31T06:51:47.513Z,6.70
2023-03-31T06:54:17.323Z,7.00
2023-03-31T06:56:47.105Z,7.90
2023-03-31T06:59:20.866Z,9.00
2023-03-31T07:01:59.057Z,9.60
2023-03-31T07:04:36.214Z,9.10
2023-03-31T07:07:15.025Z,8.80
2023-03-31T07:09:58.355Z,8.90
2023-03-31T07:12:36.191Z,8.20
2023-03-31T07:15:09.032Z,9.00
2023-03-31T07:17:42.257Z,9.10
2023-03-31T07:20:21.197Z,10.60
2023-03-31T07:22:52.606Z,9.60
2023-03-31T07:25:35.483Z,8.10
2023-03-31T07:28:11.729Z,7.40
2023-03-31T07:30:46.429Z,7.20
2023-03-31T07:33:20.659Z,8.00
2023-03-31T07:36:07.920Z,7.20
2023-03-31T07:38:51.163Z,5.90
2023-03-31T07:41:29.055Z,6.50
2023-03-31T07:44:07.363Z,6.70
2023-03-31T07:46:48.071Z,7.30
2023-03-31T07:49:22.086Z,6.80
2023-03-31T07:52:00.188Z,6.50
2023-03-31T07:54:31.900Z,7.40
2023-03-31T07:57:11.938Z,4.90
2023-03-31T07:59:51.265Z,5.20
2023-03-31T08:02:37.031Z,4.90
2023-03-31T08:05:15.135Z,4.40
2023-03-31T08:08:04.009Z,4.30
2023-03-31T08:10:42.222Z,4.80
2023-03-31T08:13:14.766Z,5.40
2023-03-31T08:15:56.168Z,4.50
2023-03-31T08:18:34.526Z,4.60
2023-03-31T08:21:13.575Z,5.00
2023-03-31T08:23:48.591Z,5.10
2023-03-31T08:26:31.008Z,5.40
2023-03-31T08:29:31.589Z,5.90
2023-03-31T08:32:15.564Z,7.20
2023-03-31T08:34:50.330Z,6.20
2023-03-31T08:37:29.188Z,6.80
2023-03-31T08:46:50.491Z,5.70
2023-03-31T08:49:19.992Z,5.10
2023-03-31T08:52:04.684Z,4.90
2023-03-31T08:54:55.889Z,6.00
2023-03-31T08:58:36.689Z,5.60
2023-03-31T09:01:56.403Z,5.40
2023-03-31T09:04:39.667Z,5.80
2023-03-31T09:12:03.808Z,5.90
2023-03-31T09:15:57.445Z,6.20
2023-03-31T09:19:09.830Z,5.80
2023-03-31T09:22:04.218Z,6.10
2023-03-31T09:25:11.789Z,5.50
2023-03-31T09:28:05.371Z,5.70
2023-03-31T09:30:48.549Z,5.20
2023-03-31T09:34:00.783Z,4.40
2023-03-31T09:36:53.655Z,4.50
2023-03-31T09:39:24.815Z,4.60
2023-03-31T09:42:01.228Z,4.40
2023-03-31T09:44:48.655Z,4.00
2023-03-31T09:47:55.493Z,4.50
2023-03-31T09:50:38.072Z,4.40
2023-03-31T09:53:27.884Z,4.60
2023-03-31T09:56:13.775Z,4.60
2023-03-31T09:59:10.268Z,4.40
2023-03-31T10:01:57.462Z,4.20
2023-03-31T10:05:33.884Z,3.90
2023-03-31T10:08:27.098Z,3.90
2023-03-31T10:11:21.950Z,3.90
2023-03-31T10:14:04.447Z,3.30
2023-03-31T10:16:56.548Z,3.20
2023-03-31T10:19:41.078Z,3.10
2023-03-31T10:23:05.153Z,3.80
2023-03-31T10:25:40.665Z,3.60
2023-03-31T10:28:19.276Z,3.50
2023-03-31T10:30:49.537Z,3.50
2023-03-31T10:33:36.213Z,3.80
2023-03-31T10:36:27.076Z,3.90
2023-03-31T10:38:57.348Z,4.20
2023-03-31T10:41:33.442Z,3.40
2023-03-31T10:44:57.175Z,3.40
2023-03-31T10:47:29.330Z,3.40
2023-03-31T10:50:01.396Z,3.20
2023-03-31T10:53:28.577Z,2.90
2023-03-31T10:56:06.469Z,3.60
2023-03-31T10:59:05.773Z,3.20
2023-03-31T11:02:00.241Z,3.10
2023-03-31T11:04:42.971Z,3.50
2023-03-31T11:07:30.653Z,3.00
2023-03-31T11:10:41.753Z,3.40
2023-03-31T11:13:38.302Z,4.00
2023-03-31T11:16:26.322Z,3.50
2023-03-31T11:19:35.088Z,3.60
2023-03-31T11:25:09.040Z,4.60
2023-03-31T11:27:56.335Z,4.00
2023-03-31T11:30:38.085Z,4.10
2023-03-31T11:33:29.729Z,4.10
2023-03-31T11:36:28.986Z,4.20
2023-03-31T11:39:04.077Z,3.20
2023-03-31T11:41:51.458Z,7.00
2023-03-31T11:44:20.576Z,4.50
2023-03-31T11:47:09.676Z,4.30
2023-03-31T11:49:59.210Z,3.00
2023-03-31T11:52:33.368Z,2.40
2023-03-31T11:55:17.395Z,5.20
2023-03-31T11:58:02.019Z,2.60
2023-03-31T12:00:42.634Z,3.10
2023-03-31T12:03:53.346Z,3.30
2023-03-31T12:06:23.731Z,2.50
2023-03-31T12:09:21.738Z,4.10
2023-03-31T12:12:00.145Z,3.80
2023-03-31T12:14:36.266Z,4.10
2023-03-31T12:17:12.816Z,5.30
2023-03-31T12:19:54.215Z,3.30
2023-03-31T12:22:34.602Z,3.20
2023-03-31T12:25:03.171Z,3.20
2023-03-31T12:27:42.206Z,4.90
2023-03-31T12:30:15.177Z,7.70
2023-03-31T12:33:09.374Z,2.80
2023-03-31T12:36:00.575Z,3.40
2023-03-31T12:39:02.404Z,3.20
2023-03-31T12:41:56.771Z,2.90
2023-03-31T12:44:28.578Z,2.80
2023-03-31T12:47:19.696Z,3.10
2023-03-31T12:49:54.645Z,3.40
2023-03-31T12:52:41.466Z,3.90
2023-03-31T12:55:40.137Z,4.50
2023-03-31T12:58:32.370Z,3.20
2023-03-31T13:01:01.731Z,4.00
2023-03-31T13:03:34.772Z,4.30
2023-03-31T13:06:04.184Z,4.90
2023-03-31T13:08:52.260Z,5.20
2023-03-31T13:11:37.263Z,4.60
2023-03-31T13:14:18.200Z,3.90
2023-03-31T13:16:46.827Z,7.10
2023-03-31T13:19:35.125Z,6.60
2023-03-31T13:22:04.853Z,3.60
2023-03-31T13:24:33.910Z,2.80
2023-03-31T13:27:29.344Z,3.20
2023-03-31T13:29:57.636Z,3.80
2023-03-31T13:32:27.364Z,3.40
2023-03-31T13:35:03.773Z,3.60
2023-03-31T13:38:02.114Z,2.90
2023-03-31T13:40:52.445Z,3.30
2023-03-31T13:43:29.591Z,4.10
2023-03-31T13:48:58.074Z,4.80
2023-03-31T13:51:30.168Z,4.40
2023-03-31T13:54:10.701Z,3.50
2023-03-31T13:56:53.074Z,5.00
2023-03-31T13:59:45.719Z,4.20
2023-03-31T14:02:40.308Z,3.60
2023-03-31T14:05:20.167Z,4.00
2023-03-31T14:07:51.062Z,4.10
2023-03-31T14:10:33.887Z,3.50
2023-03-31T14:13:09.263Z,4.80
2023-03-31T14:15:42.584Z,4.50
2023-03-31T14:18:16.941Z,5.00
2023-03-31T14:20:50.875Z,4.00
2023-03-31T14:23:40.994Z,4.00
2023-03-31T14:26:28.733Z,5.30
2023-03-31T14:29:19.955Z,5.60
2023-03-31T14:32:04.684Z,5.20
2023-03-31T14:35:14.066Z,4.90
2023-03-31T14:37:43.699Z,5.40
2023-03-31T14:40:16.089Z,6.20
2023-03-31T14:45:31.780Z,5.90
2023-03-31T14:48:11.682Z,6.90
2023-03-31T14:50:43.306Z,5.60
2023-03-31T14:53:16.403Z,5.80
2023-03-31T14:55:58.149Z,7.10
2023-03-31T14:58:34.858Z,7.60
2023-03-31T15:01:04.909Z,4.90
2023-03-31T15:06:07.360Z,5.90
2023-03-31T15:08:37.015Z,7.70
2023-03-31T15:13:46.900Z,12.90
2023-03-31T15:19:06.530Z,11.40
2023-03-31T15:21:37.738Z,8.80
2023-03-31T15:24:16.824Z,7.80
2023-03-31T15:31:18.439Z,7.80
2023-03-31T15:33:49.609Z,7.80
2023-03-31T15:36:18.233Z,8.10
2023-03-31T15:38:46.692Z,8.10
2023-03-31T15:41:17.449Z,8.80
2023-03-31T15:43:47.228Z,8.20
2023-03-31T15:46:25.314Z,7.80
2023-03-31T15:48:55.024Z,7.10
2023-03-31T15:51:31.285Z,8.30
2023-03-31T15:54:00.168Z,7.40
2023-03-31T15:56:36.433Z,8.50
2023-03-31T15:59:07.464Z,9.50
2023-03-31T16:01:40.193Z,9.20
2023-03-31T16:04:13.400Z,9.80
2023-03-31T16:06:55.302Z,9.70
2023-03-31T16:09:45.509Z,10.00
2023-03-31T16:12:33.704Z,9.10
2023-03-31T16:15:15.942Z,9.40
2023-03-31T16:17:53.525Z,7.80
2023-03-31T16:20:30.121Z,7.80
2023-03-31T16:23:00.301Z,8.40
2023-03-31T16:25:54.632Z,9.30
2023-03-31T16:28:33.414Z,8.50
2023-03-31T16:31:03.124Z,9.10
2023-03-31T16:33:53.051Z,9.10
2023-03-31T16:36:21.777Z,10.10
2023-03-31T16:38:53.433Z,10.60
2023-03-31T16:41:23.695Z,12.10
2023-03-31T16:43:54.661Z,11.10
2023-03-31T16:46:27.820Z,11.10
2023-03-31T16:48:57.496Z,15.30
2023-03-31T16:51:28.637Z,17.90
2023-03-31T16:54:24.075Z,15.60
2023-03-31T16:57:02.834Z,17.30
2023-03-31T16:59:33.745Z,13.30
2023-03-31T17:03:21.385Z,20.00
2023-03-31T17:13:12.454Z,7.60
2023-03-31T17:15:46.866Z,7.80
2023-03-31T17:18:15.848Z,7.80
2023-03-31T17:20:44.940Z,9.60
2023-03-31T17:23:17.861Z,9.10
2023-03-31T17:25:51.134Z,8.30
2023-03-31T17:28:27.704Z,7.10
2023-03-31T17:30:57.527Z,4.80
2023-03-31T17:33:28.350Z,5.50
2023-03-31T17:36:02.762Z,5.90
2023-03-31T17:38:34.838Z,5.60
2023-03-31T17:41:07.215Z,6.10
2023-03-31T17:43:36.387Z,5.00
2023-03-31T17:46:11.806Z,4.60
2023-03-31T17:48:43.473Z,5.40
2023-03-31T17:51:16.423Z,5.80
2023-03-31T17:53:49.230Z,4.40
2023-03-31T17:56:18.039Z,3.10
2023-03-31T17:58:46.884Z,3.40
2023-03-31T18:01:19.604Z,2.70
2023-03-31T18:03:50.294Z,2.90
2023-03-31T18:06:19.861Z,3.60
2023-03-31T18:08:52.377Z,2.30
2023-03-31T18:11:23.976Z,2.90
2023-03-31T18:14:02.672Z,2.30
2023-03-31T18:16:31.794Z,2.40
2023-03-31T18:19:02.241Z,2.90
2023-03-31T18:21:35.261Z,3.60
2023-03-31T18:24:15.002Z,2.80
2023-03-31T18:26:49.406Z,2.40
2023-03-31T18:29:19.573Z,3.30
2023-03-31T18:35:45.728Z,2.30
2023-03-31T18:38:31.584Z,2.50
2023-03-31T18:41:19.850Z,3.00
2023-03-31T18:44:17.677Z,2.60
2023-03-31T18:46:46.627Z,2.80
2023-03-31T18:49:37.553Z,2.90
2023-03-31T18:52:12.523Z,2.70
2023-03-31T18:54:42.165Z,3.80
2023-03-31T18:57:11.756Z,3.50
2023-03-31T18:59:41.745Z,2.50
2023-03-31T19:02:14.307Z,3.00
2023-03-31T19:04:42.855Z,3.10
2023-03-31T19:07:14.861Z,2.90
2023-03-31T19:09:43.491Z,3.40
2023-03-31T19:12:12.047Z,3.40
2023-03-31T19:14:41.485Z,5.70
2023-03-31T19:17:10.149Z,5.80
2023-03-31T19:19:45.986Z,7.70
2023-03-31T19:22:14.391Z,3.60
2023-03-31T19:24:43.073Z,3.60
2023-03-31T19:27:12.344Z,4.30
2023-03-31T19:29:44.733Z,3.90
2023-03-31T19:32:18.025Z,3.80
2023-03-31T19:34:47.193Z,3.70
2023-03-31T19:37:18.143Z,3.70
2023-03-31T19:39:46.977Z,3.70
2023-03-31T19:42:15.717Z,4.40
2023-03-31T19:44:45.479Z,3.70
2023-03-31T19:47:14.068Z,3.10
2023-03-31T19:49:42.544Z,3.80
2023-03-31T19:52:11.277Z,4.00
2023-03-31T19:54:41.337Z,3.80
2023-03-31T19:57:10.247Z,4.90
2023-03-31T19:59:42.636Z,6.30
2023-03-31T20:02:15.134Z,6.30
2023-03-31T20:04:44.502Z,6.80
2023-03-31T20:07:13.942Z,6.20
2023-03-31T20:09:42.520Z,6.80
2023-03-31T20:12:12.617Z,4.50
2023-03-31T20:14:41.075Z,5.40
2023-03-31T20:17:15.920Z,4.90
2023-03-31T20:19:45.216Z,4.80
2023-03-31T20:22:14.057Z,5.90
2023-03-31T20:24:44.731Z,4.80
2023-03-31T20:27:13.301Z,4.80
2023-03-31T20:29:49.207Z,5.00
2023-03-31T20:32:19.292Z,4.80
2023-03-31T20:34:48.092Z,5.00
2023-03-31T20:40:12.583Z,4.80
2023-03-31T20:42:41.946Z,4.60
2023-03-31T20:45:13.013Z,4.20
2023-03-31T20:47:43.723Z,4.30
2023-03-31T20:50:12.548Z,4.10
2023-03-31T20:52:43.235Z,4.10
2023-03-31T20:55:11.951Z,4.60
2023-03-31T20:57:40.611Z,4.80
2023-03-31T21:00:10.115Z,4.70
2023-03-31T21:02:43.196Z,4.90
2023-03-31T21:05:12.120Z,4.40
2023-03-31T21:07:41.297Z,5.50
2023-03-31T21:10:12.049Z,5.30
2023-03-31T21:12:46.356Z,6.00
2023-03-31T21:15:15.151Z,5.40
2023-03-31T21:17:45.093Z,5.90
2023-03-31T21:20:14.174Z,6.40
2023-03-31T21:22:43.068Z,7.60
2023-03-31T21:25:12.422Z,7.00
2023-03-31T21:27:41.239Z,6.60
2023-03-31T21:30:10.637Z,6.40
2023-03-31T21:32:39.838Z,5.40
2023-03-31T21:35:09.110Z,6.00
2023-03-31T21:37:37.715Z,5.60
2023-03-31T21:40:07.426Z,4.90
2023-03-31T21:42:37.681Z,5.30
2023-03-31T21:45:06.844Z,5.50
2023-03-31T21:47:36.463Z,5.30
2023-03-31T21:50:05.123Z,5.00
2023-03-31T21:52:34.232Z,4.80
2023-03-31T21:55:02.990Z,4.80
2023-03-31T21:57:31.992Z,4.80
2023-03-31T22:00:00.493Z,6.40
2023-03-31T22:02:29.290Z,6.30
2023-03-31T22:04:58.290Z,6.10
2023-03-31T22:07:27.308Z,4.90
2023-03-31T22:09:56.746Z,4.40
2023-03-31T22:12:26.355Z,4.90
2023-03-31T22:14:54.887Z,4.50
2023-03-31T22:17:26.588Z,4.70
2023-03-31T22:19:55.751Z,5.20
2023-03-31T22:22:24.016Z,4.30
2023-03-31T22:24:52.499Z,4.90
2023-03-31T22:27:20.941Z,4.30
2023-03-31T22:29:51.707Z,4.70
2023-03-31T22:32:20.092Z,4.30
2023-03-31T22:34:49.120Z,4.00
2023-03-31T22:37:17.368Z,4.60
2023-03-31T22:39:45.578Z,5.20
2023-03-31T22:42:14.799Z,5.20
2023-03-31T22:44:43.601Z,5.10
2023-03-31T22:47:12.130Z,5.00
2023-03-31T22:49:42.390Z,5.20
2023-03-31T22:52:11.117Z,5.90
2023-03-31T22:54:41.000Z,5.00
2023-03-31T22:57:09.675Z,5.00
2023-03-31T22:59:37.996Z,4.70
2023-03-31T23:02:06.313Z,4.60
2023-03-31T23:04:34.726Z,4.30
2023-03-31T23:07:03.421Z,4.20
2023-03-31T23:09:32.698Z,4.50
2023-03-31T23:12:01.217Z,3.80
2023-03-31T23:14:30.361Z,4.00
2023-03-31T23:16:58.690Z,4.10
2023-03-31T23:19:27.033Z,4.90
2023-03-31T23:21:55.381Z,4.30
2023-03-31T23:24:25.194Z,3.60
2023-03-31T23:26:58.947Z,4.40
2023-03-31T23:29:27.587Z,3.80
2023-03-31T23:31:55.847Z,5.10
2023-03-31T23:34:24.692Z,3.40
2023-03-31T23:36:53.585Z,3.60
2023-03-31T23:42:40.327Z,5.80
2023-03-31T23:45:09.582Z,5.40
2023-03-31T23:47:40.962Z,3.90
2023-03-31T23:50:09.515Z,4.50
2023-03-31T23:52:38.123Z,4.80
2023-03-31T23:55:06.758Z,4.30
2023-03-31T23:57:35.730Z,4.30
